Home   Weather   Germany   Delmenhorst   Past weeks
Flag for Germany

Past Weather in Delmenhorst, Lower Saxony, Germany — Yesterday and Last 2 Weeks

Currently: 81 °F. Passing clouds. (Weather station: Bremen Airport, Germany). See more current weather

Past Weather in Delmenhorst — Graph

°F

Delmenhorst Temperature Yesterday

Maximum temperature yesterday: 66 °F (at 2:20 pm)
Minimum temperature yesterday: 50 °F (at 2:50 am)
Average temperature yesterday: 60 °F

High & Low Weather Summary for the Past Weeks

 TemperatureHumidityPressure
High82 °F (Jul 24, 3:50 pm)100% (Jul 10, 3:50 am)30.21 "Hg (Jul 10, 3:50 am)
Low50 °F (Jul 10, 4:50 am)45% (Jul 24, 3:50 pm)29.74 "Hg (Jul 14, 10:20 am)
Average67 °F76%30.03 "Hg
* Reported Jul 9 4:20 pm — Jul 24 4:20 pm, Delmenhorst. Weather by CustomWeather, © 2021

Note: Actual official high and low records may vary slightly from our data, if they occured in-between our weather recording intervals... More about our weather records

Delmenhorst Weather History for the Previous 24 Hours

Scroll right to see more
 ConditionsComfort  
Time TempWeatherWind HumidityBarometerVisibility
4:20 pm
Sat, Jul 24
82 °FPassing clouds.9 mph45%29.80 "HgN/A
3:50 pm82 °FPassing clouds.9 mph45%29.80 "HgN/A
3:20 pm81 °FSunny.13 mph48%29.80 "Hg10 mi
2:50 pm81 °FPassing clouds.10 mph48%29.83 "HgN/A
2:20 pm81 °FPassing clouds.10 mph48%29.83 "HgN/A
1:50 pm79 °FSunny.12 mph51%29.83 "Hg10 mi
1:20 pm77 °FPassing clouds.8 mph54%29.83 "HgN/A
12:50 pm77 °FPassing clouds.10 mph54%29.86 "HgN/A
12:20 pm75 °FPassing clouds.9 mph54%29.86 "HgN/A
11:50 am73 °FPassing clouds.10 mph57%29.86 "HgN/A
11:20 am72 °FPassing clouds.9 mph57%29.89 "HgN/A
10:50 am72 °FPassing clouds.10 mph57%29.89 "HgN/A
10:20 am70 °FSunny.10 mph64%29.89 "Hg10 mi
9:50 am68 °FSunny.14 mph64%29.89 "Hg10 mi
9:20 am66 °FSunny.10 mph73%29.89 "Hg10 mi
8:50 am64 °FSunny.9 mph78%29.92 "Hg10 mi
8:20 am61 °FSunny.8 mph83%29.92 "Hg10 mi
7:50 am59 °FSunny.8 mph88%29.95 "Hg10 mi
7:20 am57 °FSunny.7 mph88%29.95 "Hg10 mi
6:50 am55 °FSunny.5 mph94%29.95 "Hg10 mi
6:20 am54 °FSunny.5 mph94%29.95 "Hg10 mi
5:50 am54 °FSunny.6 mph94%29.95 "Hg10 mi
5:20 am55 °FClear.7 mph94%29.92 "Hg10 mi
4:50 am55 °FClear.7 mph94%29.95 "Hg10 mi
4:20 am55 °FClear.6 mph94%29.95 "Hg10 mi
3:50 am55 °FClear.6 mph94%29.95 "Hg10 mi
3:20 am55 °FClear.5 mph94%29.98 "Hg10 mi
1:50 am57 °FClear.3 mph94%29.98 "Hg10 mi
1:20 am57 °FClear.3 mph94%29.98 "Hg10 mi
12:50 am57 °FClear.6 mph94%29.98 "Hg10 mi
12:20 am57 °FClear.5 mph94%29.98 "Hg10 mi
11:50 pm
Fri, Jul 23
59 °FClear.5 mph88%29.98 "Hg10 mi
11:20 pm59 °FPassing clouds.5 mph88%30.01 "HgN/A
10:50 pm59 °FPassing clouds.6 mph88%30.01 "HgN/A
10:20 pm61 °FPassing clouds.5 mph83%30.01 "HgN/A
9:50 pm63 °FPassing clouds.8 mph83%30.01 "HgN/A
9:20 pm64 °FPartly sunny.7 mph78%30.01 "HgN/A
8:50 pm64 °FPartly sunny.7 mph78%30.01 "HgN/A
8:20 pm64 °FOvercast.7 mph73%30.01 "HgN/A
7:50 pm64 °FOvercast.7 mph78%30.01 "HgN/A
7:20 pm66 °FOvercast.6 mph68%30.01 "HgN/A
6:50 pm66 °FOvercast.7 mph68%30.01 "HgN/A
6:20 pm66 °FBroken clouds.6 mph73%30.04 "HgN/A
5:50 pm66 °FBroken clouds.6 mph68%30.04 "HgN/A
5:20 pm66 °FBroken clouds.5 mph68%30.04 "HgN/A
Weather by CustomWeather, © 2021

See weather overview